Terminal Aerodrome Forecast
Issued by NWS Charleston, WV

Current Version | Previous Version | Text Only | Print | Product List | Glossary Off
Versions: 1 2 3 4 5 6 7 8 9 10 11 12 13 14 15 16 17 18 19 20 21 22 23 24

000
FTUS41 KRLX 021300 AAA
TAFBKW
TAF AMD
KBKW 021309Z 0213/0312 33010G20KT 3SM -SN BKN005 OVC010
      TEMPO 0213/0215 1SM -SN BR OVC004
     FM021500 31010G17KT 5SM -SN BKN006 OVC015
     FM021700 31010G19KT P6SM OVC020
     FM021800 33010KT P6SM SCT020=

USA.gov is the U.S. government's official web portal to all federal, state and local government web resources and services.